createdAt,value
2023-03-08T00:02:05.700Z,5.50
2023-03-08T00:04:32.605Z,4.50
2023-03-08T00:06:59.193Z,4.10
2023-03-08T00:09:25.881Z,4.63
2023-03-08T00:11:52.425Z,5.20
2023-03-08T00:14:20.637Z,5.30
2023-03-08T00:16:47.254Z,5.63
2023-03-08T00:19:16.696Z,6.63
2023-03-08T00:21:43.468Z,4.37
2023-03-08T00:24:12.015Z,5.70
2023-03-08T00:26:38.747Z,5.63
2023-03-08T00:29:05.381Z,6.33
2023-03-08T00:31:32.087Z,5.27
2023-03-08T00:33:58.705Z,5.73
2023-03-08T00:36:25.385Z,7.63
2023-03-08T00:38:52.756Z,5.50
2023-03-08T00:41:20.011Z,5.80
2023-03-08T00:43:46.657Z,5.43
2023-03-08T00:46:13.994Z,4.13
2023-03-08T00:48:41.170Z,4.13
2023-03-08T00:51:09.129Z,4.23
2023-03-08T00:53:35.735Z,4.57
2023-03-08T00:56:02.506Z,4.87
2023-03-08T00:58:31.876Z,6.67
2023-03-08T01:00:59.847Z,6.67
2023-03-08T01:03:27.042Z,5.30
2023-03-08T01:05:56.633Z,6.30
2023-03-08T01:08:25.772Z,5.87
2023-03-08T01:10:58.619Z,4.50
2023-03-08T01:13:28.011Z,4.70
2023-03-08T01:15:54.707Z,4.87
2023-03-08T01:18:21.510Z,5.37
2023-03-08T01:21:04.901Z,5.97
2023-03-08T01:23:32.368Z,5.13
2023-03-08T01:26:02.020Z,5.63
2023-03-08T01:28:29.159Z,5.80
2023-03-08T01:31:01.802Z,5.70
2023-03-08T01:33:28.389Z,4.20
2023-03-08T01:35:55.105Z,5.50
2023-03-08T01:38:21.696Z,5.73
2023-03-08T01:40:57.586Z,5.53
2023-03-08T01:43:29.826Z,5.37
2023-03-08T01:46:15.898Z,5.00
2023-03-08T01:49:06.130Z,5.80
2023-03-08T01:51:53.982Z,4.00
2023-03-08T01:54:23.119Z,4.30
2023-03-08T01:56:51.256Z,5.13
2023-03-08T01:59:20.881Z,7.10
2023-03-08T02:01:47.974Z,4.90
2023-03-08T02:04:14.753Z,3.93
2023-03-08T02:06:43.427Z,4.90
2023-03-08T02:09:11.144Z,4.97
2023-03-08T02:11:41.242Z,4.93
2023-03-08T02:14:08.137Z,5.63
2023-03-08T02:16:36.473Z,5.60
2023-03-08T02:19:10.770Z,6.50
2023-03-08T02:21:37.688Z,5.13
2023-03-08T02:24:18.994Z,5.73
2023-03-08T02:26:46.673Z,4.83
2023-03-08T02:29:13.259Z,5.77
2023-03-08T02:31:40.875Z,5.07
2023-03-08T02:34:08.361Z,6.40
2023-03-08T02:36:35.634Z,5.57
2023-03-08T02:39:02.194Z,6.90
2023-03-08T02:41:28.859Z,3.50
2023-03-08T02:43:55.576Z,6.90
2023-03-08T02:46:22.262Z,5.93
2023-03-08T02:48:49.929Z,5.37
2023-03-08T02:51:16.556Z,7.10
2023-03-08T02:53:43.330Z,4.47
2023-03-08T02:56:10.167Z,4.23
2023-03-08T02:58:36.851Z,5.60
2023-03-08T03:01:03.480Z,6.83
2023-03-08T03:03:31.399Z,5.40
2023-03-08T03:05:58.112Z,3.30
2023-03-08T03:08:31.341Z,5.93
2023-03-08T03:10:58.037Z,5.10
2023-03-08T03:13:24.647Z,6.07
2023-03-08T03:15:52.118Z,5.83
2023-03-08T03:18:18.762Z,6.63
2023-03-08T03:20:45.330Z,3.87
2023-03-08T03:23:11.915Z,5.90
2023-03-08T03:25:47.993Z,5.13
2023-03-08T03:28:17.510Z,6.13
2023-03-08T03:30:44.951Z,6.23
2023-03-08T03:33:13.445Z,5.97
2023-03-08T03:35:40.066Z,6.87
2023-03-08T03:38:08.861Z,6.20
2023-03-08T03:40:36.027Z,6.00
2023-03-08T03:43:03.992Z,5.93
2023-03-08T03:45:30.617Z,6.50
2023-03-08T03:47:57.228Z,5.50
2023-03-08T03:50:25.700Z,5.93
2023-03-08T03:52:57.789Z,7.20
2023-03-08T03:55:24.454Z,5.00
2023-03-08T03:57:51.404Z,6.90
2023-03-08T04:00:18.978Z,6.23
2023-03-08T04:02:53.589Z,6.17
2023-03-08T04:05:21.541Z,5.80
2023-03-08T04:07:51.560Z,5.43
2023-03-08T04:10:19.914Z,7.30
2023-03-08T04:12:50.638Z,5.93
2023-03-08T04:15:19.058Z,6.50
2023-03-08T04:17:45.859Z,6.17
2023-03-08T04:20:14.465Z,6.47
2023-03-08T04:22:46.499Z,6.60
2023-03-08T04:25:18.981Z,5.77
2023-03-08T04:27:52.570Z,5.00
2023-03-08T04:30:20.543Z,5.20
2023-03-08T04:32:47.155Z,6.57
2023-03-08T04:35:14.191Z,5.90
2023-03-08T04:37:45.553Z,6.00
2023-03-08T04:40:13.229Z,5.83
2023-03-08T04:42:52.768Z,6.23
2023-03-08T04:45:25.215Z,6.10
2023-03-08T04:47:54.448Z,5.80
2023-03-08T04:50:21.098Z,6.00
2023-03-08T04:52:48.235Z,5.80
2023-03-08T04:55:15.318Z,5.90
2023-03-08T04:57:41.954Z,5.43
2023-03-08T05:00:10.154Z,5.67
2023-03-08T05:02:39.122Z,8.63
2023-03-08T05:05:11.532Z,5.60
2023-03-08T05:07:38.281Z,6.80
2023-03-08T05:10:05.414Z,4.90
2023-03-08T05:12:32.042Z,6.97
2023-03-08T05:15:00.408Z,6.37
2023-03-08T05:17:27.481Z,5.97
2023-03-08T05:19:54.843Z,6.70
2023-03-08T05:22:27.133Z,5.63
2023-03-08T05:24:56.686Z,5.50
2023-03-08T05:27:23.723Z,6.07
2023-03-08T05:29:52.271Z,5.10
2023-03-08T05:32:18.919Z,5.67
2023-03-08T05:34:45.781Z,6.43
2023-03-08T05:37:18.612Z,9.83
2023-03-08T05:39:45.713Z,6.60
2023-03-08T05:42:17.008Z,7.23
2023-03-08T05:44:46.028Z,6.73
2023-03-08T05:47:15.391Z,6.20
2023-03-08T05:49:42.077Z,6.77
2023-03-08T05:52:09.274Z,6.60
2023-03-08T05:54:35.940Z,6.50
2023-03-08T05:57:08.287Z,5.30
2023-03-08T05:59:35.920Z,5.87
2023-03-08T06:02:04.120Z,7.03
2023-03-08T06:04:38.131Z,6.67
2023-03-08T06:07:04.821Z,6.67
2023-03-08T06:09:41.903Z,6.40
2023-03-08T06:12:12.963Z,6.10
2023-03-08T06:14:39.587Z,6.67
2023-03-08T06:17:06.700Z,6.60
2023-03-08T06:19:37.609Z,6.87
2023-03-08T06:22:04.268Z,6.27
2023-03-08T06:24:31.437Z,6.63
2023-03-08T06:27:00.675Z,6.40
2023-03-08T06:29:27.310Z,6.60
2023-03-08T06:31:54.452Z,6.73
2023-03-08T06:34:22.010Z,8.50
2023-03-08T06:36:52.119Z,9.43
2023-03-08T06:39:19.397Z,7.83
2023-03-08T06:41:46.077Z,7.47
2023-03-08T06:44:13.797Z,8.10
2023-03-08T06:46:40.366Z,7.03
2023-03-08T06:49:07.830Z,7.00
2023-03-08T06:51:35.833Z,6.50
2023-03-08T06:54:02.638Z,9.00
2023-03-08T06:56:30.177Z,8.13
2023-03-08T06:58:56.837Z,7.90
2023-03-08T07:01:23.555Z,6.53
2023-03-08T07:03:51.911Z,6.73
2023-03-08T07:06:18.524Z,6.20
2023-03-08T07:08:45.319Z,5.70
2023-03-08T07:11:14.022Z,6.90
2023-03-08T07:13:40.833Z,6.60
2023-03-08T07:16:12.593Z,8.10
2023-03-08T07:18:39.950Z,7.10
2023-03-08T07:21:07.426Z,7.27
2023-03-08T07:23:34.111Z,6.63
2023-03-08T07:26:04.684Z,6.60
2023-03-08T07:28:31.319Z,7.97
2023-03-08T07:30:57.912Z,7.40
2023-03-08T07:33:24.551Z,6.53
2023-03-08T07:35:51.353Z,6.50
2023-03-08T07:38:18.563Z,6.80
2023-03-08T07:40:45.205Z,6.77
2023-03-08T07:43:11.989Z,6.70
2023-03-08T07:45:53.775Z,6.30
2023-03-08T07:48:20.340Z,8.30
2023-03-08T07:50:46.929Z,7.63
2023-03-08T07:53:13.563Z,9.70
2023-03-08T07:55:40.188Z,8.57
2023-03-08T07:58:06.884Z,8.13
2023-03-08T08:00:33.633Z,10.10
2023-03-08T08:03:00.298Z,8.27
2023-03-08T08:05:27.082Z,8.07
2023-03-08T08:07:53.859Z,6.23
2023-03-08T08:10:20.485Z,6.10
2023-03-08T08:12:47.096Z,7.40
2023-03-08T08:15:13.813Z,6.70
2023-03-08T08:17:40.475Z,7.87
2023-03-08T08:20:10.396Z,7.20
2023-03-08T08:22:37.558Z,6.20
2023-03-08T08:25:08.142Z,8.00
2023-03-08T08:27:35.825Z,6.97
2023-03-08T08:30:04.926Z,6.00
2023-03-08T08:32:34.253Z,6.63
2023-03-08T08:35:00.951Z,7.70
2023-03-08T08:37:27.577Z,6.97
2023-03-08T08:39:54.378Z,6.43
2023-03-08T08:42:20.954Z,6.90
2023-03-08T08:44:47.589Z,8.10
2023-03-08T08:47:14.183Z,7.93
2023-03-08T08:49:41.538Z,6.57
2023-03-08T08:52:08.094Z,7.83
2023-03-08T08:54:34.795Z,6.60
2023-03-08T08:57:01.409Z,7.43
2023-03-08T08:59:28.233Z,7.60
2023-03-08T09:01:54.843Z,8.30
2023-03-08T09:04:21.551Z,6.87
2023-03-08T09:06:48.260Z,7.40
2023-03-08T09:09:16.164Z,7.10
2023-03-08T09:11:54.293Z,6.73
2023-03-08T09:14:21.929Z,8.20
2023-03-08T09:16:48.638Z,8.50
2023-03-08T09:19:15.608Z,7.60
2023-03-08T09:21:42.265Z,8.23
2023-03-08T09:24:10.505Z,7.87
2023-03-08T09:26:37.381Z,8.50
2023-03-08T09:29:07.880Z,7.80
2023-03-08T09:31:37.409Z,6.97
2023-03-08T09:34:08.545Z,6.97
2023-03-08T09:36:36.936Z,7.90
2023-03-08T09:39:04.161Z,6.93
2023-03-08T09:41:49.973Z,7.10
2023-03-08T09:44:43.628Z,8.30
2023-03-08T09:47:31.811Z,7.80
2023-03-08T09:50:19.406Z,8.10
2023-03-08T09:53:09.419Z,8.13
2023-03-08T09:55:43.822Z,8.17
2023-03-08T09:58:32.480Z,7.87
2023-03-08T10:01:13.502Z,7.77
2023-03-08T10:03:49.537Z,9.93
2023-03-08T10:06:32.866Z,8.50
2023-03-08T10:09:26.635Z,7.40
2023-03-08T10:12:24.321Z,9.53
2023-03-08T10:14:57.163Z,9.13
2023-03-08T10:17:28.419Z,9.30
2023-03-08T10:20:23.602Z,8.80
2023-03-08T10:23:02.885Z,8.43
2023-03-08T10:25:34.411Z,8.97
2023-03-08T10:28:04.182Z,8.27
2023-03-08T10:30:36.897Z,9.23
2023-03-08T10:33:08.013Z,10.80
2023-03-08T10:35:38.781Z,10.87
2023-03-08T10:38:16.410Z,9.97
2023-03-08T10:40:44.555Z,10.33
2023-03-08T10:43:28.605Z,10.33
2023-03-08T10:46:01.290Z,9.80
2023-03-08T10:48:27.909Z,9.73
2023-03-08T10:51:00.305Z,10.73
2023-03-08T10:53:29.557Z,11.67
2023-03-08T10:55:58.780Z,12.40
2023-03-08T10:58:37.333Z,11.23
2023-03-08T11:01:24.108Z,11.27
2023-03-08T11:04:03.383Z,10.53
2023-03-08T11:06:30.798Z,12.80
2023-03-08T11:09:00.594Z,11.63
2023-03-08T11:11:27.791Z,10.77
2023-03-08T11:13:55.137Z,12.17
2023-03-08T11:16:29.753Z,11.07
2023-03-08T11:19:19.835Z,10.37
2023-03-08T11:22:05.113Z,10.83
2023-03-08T11:24:52.912Z,11.13
2023-03-08T11:27:31.757Z,10.87
2023-03-08T11:30:16.395Z,12.57
2023-03-08T11:32:46.154Z,11.83
2023-03-08T11:35:47.593Z,10.97
2023-03-08T11:38:29.107Z,10.90
2023-03-08T11:41:10.875Z,11.10
2023-03-08T11:43:47.918Z,12.10
2023-03-08T11:46:29.957Z,12.67
2023-03-08T11:49:28.839Z,12.20
2023-03-08T11:52:04.603Z,10.20
2023-03-08T11:54:45.937Z,10.67
2023-03-08T11:57:15.797Z,9.80
2023-03-08T11:59:48.560Z,12.10
2023-03-08T12:02:37.270Z,11.27
2023-03-08T12:05:14.497Z,10.00
2023-03-08T12:07:55.659Z,11.30
2023-03-08T12:10:30.500Z,9.70
2023-03-08T12:13:03.801Z,9.57
2023-03-08T12:15:39.437Z,10.60
2023-03-08T12:18:18.198Z,8.57
2023-03-08T12:20:45.794Z,8.30
2023-03-08T12:23:18.477Z,10.03
2023-03-08T12:25:50.559Z,9.80
2023-03-08T12:28:25.301Z,10.57
2023-03-08T12:31:01.264Z,8.97
2023-03-08T12:33:32.283Z,9.03
2023-03-08T12:36:06.386Z,9.73
2023-03-08T12:38:45.893Z,11.93
2023-03-08T12:41:28.463Z,10.50
2023-03-08T12:44:29.305Z,8.00
2023-03-08T12:47:04.207Z,9.17
2023-03-08T12:49:43.543Z,9.17
2023-03-08T12:52:19.274Z,8.20
2023-03-08T12:55:35.294Z,7.60
2023-03-08T12:58:04.504Z,8.00
2023-03-08T13:00:35.440Z,8.40
2023-03-08T13:03:05.986Z,8.50
2023-03-08T13:05:37.196Z,7.93
2023-03-08T13:08:49.950Z,8.20
2023-03-08T13:11:18.100Z,7.70
2023-03-08T13:13:44.701Z,6.90
2023-03-08T13:16:38.492Z,7.43
2023-03-08T13:19:14.735Z,8.80
2023-03-08T13:22:04.827Z,7.60
2023-03-08T13:24:51.482Z,6.73
2023-03-08T13:28:17.052Z,6.60
2023-03-08T13:31:18.079Z,7.40
2023-03-08T13:33:50.904Z,6.80
2023-03-08T13:36:24.559Z,7.83
2023-03-08T13:38:58.869Z,6.97
2023-03-08T13:41:43.016Z,8.40
2023-03-08T13:44:26.586Z,7.90
2023-03-08T13:46:56.305Z,7.10
2023-03-08T13:49:26.278Z,8.20
2023-03-08T13:51:56.630Z,8.40
2023-03-08T13:54:30.138Z,7.77
2023-03-08T13:57:00.095Z,8.20
2023-03-08T13:59:27.084Z,8.13
2023-03-08T14:01:54.623Z,8.87
2023-03-08T14:04:27.538Z,8.80
2023-03-08T14:06:56.788Z,10.83
2023-03-08T14:09:24.337Z,10.67
2023-03-08T14:11:59.924Z,10.53
2023-03-08T14:14:35.464Z,11.13
2023-03-08T14:17:03.332Z,10.00
2023-03-08T14:19:35.851Z,10.30
2023-03-08T14:22:09.913Z,8.80
2023-03-08T14:24:37.368Z,11.60
2023-03-08T14:27:07.116Z,12.17
2023-03-08T14:29:36.415Z,9.87
2023-03-08T14:32:12.705Z,10.20
2023-03-08T14:34:48.037Z,9.93
2023-03-08T14:37:28.167Z,9.50
2023-03-08T14:40:20.768Z,9.50
2023-03-08T14:42:51.050Z,9.80
2023-03-08T14:45:32.914Z,9.83
2023-03-08T14:48:02.936Z,9.40
2023-03-08T14:50:32.101Z,11.90
2023-03-08T14:53:01.049Z,11.27
2023-03-08T14:55:33.525Z,10.30
2023-03-08T14:58:08.597Z,9.80
2023-03-08T15:00:35.438Z,12.00
2023-03-08T15:03:02.132Z,11.23
2023-03-08T15:05:30.245Z,15.97
2023-03-08T15:07:59.686Z,14.00
2023-03-08T15:10:29.148Z,15.57
2023-03-08T15:12:56.749Z,15.17
2023-03-08T15:15:23.384Z,16.50
2023-03-08T15:17:52.707Z,15.97
2023-03-08T15:20:19.553Z,21.13
2023-03-08T15:22:50.374Z,21.87
2023-03-08T15:25:23.710Z,18.67
2023-03-08T15:28:10.760Z,19.47
2023-03-08T15:30:37.349Z,16.80
2023-03-08T15:33:04.037Z,17.47
2023-03-08T15:35:30.755Z,17.00
2023-03-08T15:37:57.465Z,17.33
2023-03-08T15:40:28.305Z,17.43
2023-03-08T15:42:55.392Z,23.70
2023-03-08T15:45:22.029Z,15.93
2023-03-08T15:48:28.154Z,15.97
2023-03-08T15:50:57.875Z,18.20
2023-03-08T15:53:34.819Z,15.17
2023-03-08T15:56:02.150Z,14.80
2023-03-08T15:58:28.825Z,14.93
2023-03-08T16:00:55.646Z,15.67
2023-03-08T16:03:26.038Z,20.30
2023-03-08T16:05:53.177Z,24.83
2023-03-08T16:08:20.461Z,22.07
2023-03-08T16:10:47.186Z,23.10
2023-03-08T16:13:13.835Z,18.40
2023-03-08T16:15:41.533Z,15.73
2023-03-08T16:18:08.174Z,16.20
2023-03-08T16:20:34.798Z,15.80
2023-03-08T16:23:01.736Z,19.80
2023-03-08T16:25:28.449Z,21.63
2023-03-08T16:27:55.101Z,23.87
2023-03-08T16:30:21.942Z,29.47
2023-03-08T16:32:52.861Z,17.43
2023-03-08T16:35:20.110Z,14.07
2023-03-08T16:37:46.727Z,15.43
2023-03-08T16:40:14.704Z,12.97
2023-03-08T16:42:41.379Z,13.60
2023-03-08T16:45:08.792Z,13.73
2023-03-08T16:47:35.514Z,13.33
2023-03-08T16:50:02.823Z,11.90
2023-03-08T16:52:29.525Z,13.07
2023-03-08T16:54:56.827Z,12.63
2023-03-08T16:57:23.454Z,11.00
2023-03-08T16:59:50.210Z,11.93
2023-03-08T17:02:19.500Z,12.37
2023-03-08T17:04:47.743Z,10.70
2023-03-08T17:07:14.995Z,11.13
2023-03-08T17:09:42.104Z,12.20
2023-03-08T17:12:09.514Z,11.70
2023-03-08T17:14:40.024Z,10.87
2023-03-08T17:17:06.709Z,9.83
2023-03-08T17:19:33.310Z,12.83
2023-03-08T17:22:00.040Z,9.53
2023-03-08T17:24:28.313Z,13.40
2023-03-08T17:26:55.457Z,15.43
2023-03-08T17:29:22.498Z,13.37
2023-03-08T17:31:49.652Z,7.53
2023-03-08T17:34:16.812Z,5.97
2023-03-08T17:36:44.573Z,6.37
2023-03-08T17:39:11.257Z,6.73
2023-03-08T17:41:38.726Z,7.53
2023-03-08T17:44:05.824Z,7.27
2023-03-08T17:46:32.499Z,6.03
2023-03-08T17:48:59.184Z,6.20
2023-03-08T17:51:28.717Z,7.67
2023-03-08T17:53:58.016Z,4.93
2023-03-08T17:56:28.618Z,4.43
2023-03-08T17:58:56.799Z,5.70
2023-03-08T18:01:25.907Z,7.50
2023-03-08T18:03:55.237Z,7.33
2023-03-08T18:06:27.599Z,6.70
2023-03-08T18:08:54.936Z,5.00
2023-03-08T18:11:21.616Z,4.83
2023-03-08T18:13:48.850Z,5.00
2023-03-08T18:16:15.518Z,4.67
2023-03-08T18:18:42.256Z,4.93
2023-03-08T18:21:13.750Z,4.70
2023-03-08T18:23:42.805Z,4.37
2023-03-08T18:26:10.886Z,4.97
2023-03-08T18:28:37.513Z,4.40
2023-03-08T18:31:13.695Z,4.77
2023-03-08T18:33:40.708Z,4.27
2023-03-08T18:36:07.873Z,12.20
2023-03-08T18:38:34.573Z,18.80
2023-03-08T18:41:14.334Z,5.40
2023-03-08T18:43:41.144Z,5.03
2023-03-08T18:46:10.445Z,5.23
2023-03-08T18:48:37.139Z,4.30
2023-03-08T18:51:24.107Z,6.73
2023-03-08T18:53:50.819Z,5.20
2023-03-08T18:56:17.500Z,8.70
2023-03-08T18:58:44.161Z,5.13
2023-03-08T19:01:17.203Z,6.60
2023-03-08T19:03:44.974Z,16.23
2023-03-08T19:06:13.293Z,15.77
2023-03-08T19:08:42.012Z,6.80
2023-03-08T19:11:13.756Z,6.30
2023-03-08T19:13:41.604Z,5.53
2023-03-08T19:16:22.067Z,5.80
2023-03-08T19:18:50.017Z,4.97
2023-03-08T19:21:24.516Z,5.47
2023-03-08T19:23:51.750Z,18.30
2023-03-08T19:26:35.962Z,131.60
2023-03-08T19:29:03.698Z,50.13
2023-03-08T19:31:30.841Z,28.80
2023-03-08T19:33:58.447Z,31.07
2023-03-08T19:36:25.120Z,10.47
2023-03-08T19:38:52.295Z,9.20
2023-03-08T19:41:18.930Z,5.90
2023-03-08T19:43:47.213Z,5.80
2023-03-08T19:46:17.793Z,4.40
2023-03-08T19:48:48.090Z,4.60
2023-03-08T19:51:16.619Z,4.43
2023-03-08T19:53:43.804Z,4.07
2023-03-08T19:56:15.844Z,3.87
2023-03-08T19:58:43.204Z,3.43
2023-03-08T20:01:12.052Z,1.87
2023-03-08T20:03:38.765Z,1.90
2023-03-08T20:06:06.051Z,1.77
2023-03-08T20:08:34.015Z,1.50
2023-03-08T20:11:00.678Z,1.47
2023-03-08T20:13:28.118Z,1.57
2023-03-08T20:15:55.908Z,1.67
2023-03-08T20:18:22.871Z,1.40
2023-03-08T20:20:50.295Z,1.93
2023-03-08T20:23:20.044Z,2.70
2023-03-08T20:25:46.819Z,2.47
2023-03-08T20:28:13.522Z,2.30
2023-03-08T20:30:40.340Z,2.17
2023-03-08T20:33:07.152Z,2.30
2023-03-08T20:35:33.840Z,2.43
2023-03-08T20:38:00.559Z,2.17
2023-03-08T20:40:27.458Z,2.00
2023-03-08T20:42:57.785Z,1.40
2023-03-08T20:45:28.813Z,1.30
2023-03-08T20:47:57.480Z,1.37
2023-03-08T20:50:27.590Z,2.07
2023-03-08T20:52:54.238Z,1.90
2023-03-08T20:55:21.138Z,1.60
2023-03-08T20:57:47.739Z,1.20
2023-03-08T21:00:15.046Z,1.63
2023-03-08T21:02:41.692Z,1.30
2023-03-08T21:05:08.723Z,1.20
2023-03-08T21:07:35.485Z,2.40
2023-03-08T21:10:02.141Z,2.00
2023-03-08T21:12:28.934Z,1.73
2023-03-08T21:14:55.670Z,1.93
2023-03-08T21:17:26.020Z,1.10
2023-03-08T21:19:55.664Z,1.23
2023-03-08T21:22:22.353Z,1.00
2023-03-08T21:24:49.091Z,1.17
2023-03-08T21:27:16.265Z,1.03
2023-03-08T21:29:43.484Z,1.30
2023-03-08T21:32:10.324Z,0.90
2023-03-08T21:34:36.998Z,1.20
2023-03-08T21:37:03.603Z,1.50
2023-03-08T21:39:30.254Z,1.23
2023-03-08T21:41:58.504Z,0.97
2023-03-08T21:44:25.503Z,1.50
2023-03-08T21:46:52.540Z,1.00
2023-03-08T21:49:22.361Z,1.40
2023-03-08T21:51:49.701Z,1.17
2023-03-08T21:54:16.578Z,1.00
2023-03-08T21:56:43.345Z,1.27
2023-03-08T21:59:10.144Z,1.00
2023-03-08T22:01:36.965Z,0.90
2023-03-08T22:04:05.326Z,0.70
2023-03-08T22:06:32.513Z,0.73
2023-03-08T22:08:59.114Z,0.70
2023-03-08T22:11:26.347Z,0.93
2023-03-08T22:13:57.096Z,0.77
2023-03-08T22:16:24.524Z,0.97
2023-03-08T22:18:56.440Z,0.80
2023-03-08T22:21:23.645Z,0.80
2023-03-08T22:23:54.990Z,0.73
2023-03-08T22:26:22.837Z,0.80
2023-03-08T22:28:49.501Z,0.77
2023-03-08T22:31:18.534Z,0.70
2023-03-08T22:33:45.773Z,0.63
2023-03-08T22:36:14.261Z,0.70
2023-03-08T22:38:41.193Z,0.67
2023-03-08T22:41:16.818Z,0.60
2023-03-08T22:43:44.518Z,0.70
2023-03-08T22:46:16.116Z,0.70
2023-03-08T22:48:45.194Z,0.80
2023-03-08T22:51:12.590Z,0.70
2023-03-08T22:53:40.690Z,0.90
2023-03-08T22:56:15.444Z,0.90
2023-03-08T22:58:42.401Z,0.80
2023-03-08T23:01:14.862Z,0.80
2023-03-08T23:03:41.785Z,0.63
2023-03-08T23:06:08.694Z,0.70
2023-03-08T23:08:35.414Z,0.70
2023-03-08T23:11:02.084Z,0.77
2023-03-08T23:13:34.002Z,0.70
2023-03-08T23:16:01.755Z,0.70
2023-03-08T23:18:28.658Z,0.80
2023-03-08T23:20:55.370Z,0.60
2023-03-08T23:23:25.005Z,0.60
2023-03-08T23:25:51.989Z,0.70
2023-03-08T23:28:18.924Z,0.70
2023-03-08T23:30:45.590Z,0.80
2023-03-08T23:33:12.315Z,0.70
2023-03-08T23:35:39.016Z,0.63
2023-03-08T23:38:05.660Z,0.60
2023-03-08T23:40:32.499Z,0.90
2023-03-08T23:42:59.147Z,0.87
2023-03-08T23:45:25.833Z,1.00
2023-03-08T23:48:02.133Z,0.90
2023-03-08T23:50:29.706Z,0.93
2023-03-08T23:52:56.280Z,0.70
2023-03-08T23:55:22.881Z,0.80
2023-03-08T23:57:49.498Z,0.80
